createdAt,value
2018-05-15T00:00:35.390Z,5.97
2018-05-15T00:03:02.853Z,5.95
2018-05-15T00:05:30.330Z,6.00
2018-05-15T00:07:57.832Z,5.80
2018-05-15T00:10:25.297Z,5.80
2018-05-15T00:12:52.769Z,6.15
2018-05-15T00:15:20.990Z,5.80
2018-05-15T00:17:48.454Z,5.80
2018-05-15T00:20:15.964Z,5.68
2018-05-15T00:22:43.412Z,6.10
2018-05-15T00:25:10.891Z,6.40
2018-05-15T00:27:38.376Z,5.82
2018-05-15T00:30:05.858Z,6.10
2018-05-15T00:32:33.327Z,5.95
2018-05-15T00:35:00.798Z,6.20
2018-05-15T00:37:28.271Z,6.20
2018-05-15T00:39:55.724Z,6.00
2018-05-15T00:42:23.193Z,6.30
2018-05-15T00:44:50.673Z,5.82
2018-05-15T00:47:18.143Z,6.40
2018-05-15T00:49:45.607Z,6.30
2018-05-15T00:52:13.095Z,6.15
2018-05-15T00:54:40.659Z,6.70
2018-05-15T00:57:08.131Z,6.75
2018-05-15T00:59:35.578Z,6.07
2018-05-15T01:02:03.036Z,6.20
2018-05-15T01:04:30.485Z,6.15
2018-05-15T01:06:58.061Z,6.50
2018-05-15T01:09:25.540Z,6.37
2018-05-15T01:11:53.724Z,6.90
2018-05-15T01:14:21.207Z,6.57
2018-05-15T01:16:48.667Z,6.50
2018-05-15T01:19:16.124Z,6.57
2018-05-15T01:21:43.596Z,6.50
2018-05-15T01:24:11.054Z,7.00
2018-05-15T01:26:39.297Z,6.47
2018-05-15T01:29:06.761Z,7.20
2018-05-15T01:31:34.222Z,6.90
2018-05-15T01:34:01.719Z,6.60
2018-05-15T01:36:29.177Z,6.53
2018-05-15T01:38:56.651Z,7.07
2018-05-15T01:41:24.098Z,6.55
2018-05-15T01:43:51.581Z,7.07
2018-05-15T01:46:19.044Z,6.50
2018-05-15T01:48:46.620Z,6.78
2018-05-15T01:51:14.088Z,6.00
2018-05-15T01:53:41.580Z,6.30
2018-05-15T01:56:09.149Z,6.50
2018-05-15T01:58:36.723Z,6.40
2018-05-15T02:01:04.176Z,6.80
2018-05-15T02:03:31.646Z,7.12
2018-05-15T02:05:59.137Z,6.47
2018-05-15T02:08:26.584Z,6.50
2018-05-15T02:10:54.038Z,7.20
2018-05-15T02:13:21.526Z,7.28
2018-05-15T02:15:48.978Z,7.10
2018-05-15T02:18:16.446Z,6.43
2018-05-15T02:20:43.900Z,6.87
2018-05-15T02:23:11.370Z,6.12
2018-05-15T02:28:30.915Z,7.00
2018-05-15T02:30:58.384Z,7.23
2018-05-15T02:33:25.855Z,6.45
2018-05-15T02:35:53.319Z,6.75
2018-05-15T02:38:20.779Z,7.15
2018-05-15T02:40:48.246Z,6.85
2018-05-15T02:43:15.738Z,7.22
2018-05-15T02:45:43.325Z,6.70
2018-05-15T02:48:10.763Z,6.93
2018-05-15T02:50:38.231Z,6.82
2018-05-15T02:53:05.705Z,7.60
2018-05-15T02:55:33.183Z,7.50
2018-05-15T02:58:00.651Z,7.60
2018-05-15T03:00:28.091Z,7.45
2018-05-15T03:02:55.554Z,7.00
2018-05-15T03:05:23.059Z,7.22
2018-05-15T03:07:50.515Z,7.20
2018-05-15T03:10:17.974Z,7.28
2018-05-15T03:12:45.438Z,7.40
2018-05-15T03:15:12.894Z,7.18
2018-05-15T03:17:41.158Z,7.55
2018-05-15T03:20:08.607Z,7.15
2018-05-15T03:22:36.107Z,7.90
2018-05-15T03:25:03.573Z,7.40
2018-05-15T03:27:31.020Z,7.43
2018-05-15T03:29:58.519Z,7.55
2018-05-15T03:32:26.759Z,7.10
2018-05-15T03:34:54.233Z,8.18
2018-05-15T03:37:21.700Z,7.22
2018-05-15T03:39:49.175Z,7.67
2018-05-15T03:42:16.644Z,7.68
2018-05-15T03:44:44.119Z,7.80
2018-05-15T03:47:11.603Z,8.05
2018-05-15T03:49:39.058Z,7.50
2018-05-15T03:52:06.538Z,8.40
2018-05-15T03:54:34.780Z,7.00
2018-05-15T03:57:02.243Z,7.50
2018-05-15T03:59:29.760Z,7.60
2018-05-15T04:02:09.008Z,7.50
2018-05-15T04:04:48.425Z,8.00
2018-05-15T04:07:27.974Z,8.07
2018-05-15T04:09:55.440Z,8.15
2018-05-15T04:12:22.911Z,9.02
2018-05-15T04:14:50.392Z,8.38
2018-05-15T04:17:17.832Z,8.60
2018-05-15T04:19:46.068Z,8.70
2018-05-15T04:22:13.572Z,7.95
2018-05-15T04:24:41.039Z,7.67
2018-05-15T04:27:08.504Z,8.07
2018-05-15T04:29:35.970Z,8.70
2018-05-15T04:32:03.436Z,9.02
2018-05-15T04:34:30.890Z,7.93
2018-05-15T04:36:58.427Z,8.05
2018-05-15T04:39:25.869Z,7.97
2018-05-15T04:41:54.126Z,8.70
2018-05-15T04:44:21.701Z,8.25
2018-05-15T04:46:49.175Z,8.40
2018-05-15T04:49:16.686Z,8.65
2018-05-15T04:51:44.118Z,8.50
2018-05-15T04:54:11.568Z,9.17
2018-05-15T04:56:39.044Z,8.90
2018-05-15T04:59:06.507Z,8.20
2018-05-15T05:01:33.991Z,8.77
2018-05-15T05:04:01.440Z,8.27
2018-05-15T05:06:28.923Z,9.13
2018-05-15T05:08:56.364Z,7.82
2018-05-15T05:11:23.844Z,8.38
2018-05-15T05:13:51.304Z,8.97
2018-05-15T05:16:18.799Z,8.20
2018-05-15T05:18:46.356Z,8.27
2018-05-15T05:21:13.812Z,8.73
2018-05-15T05:23:41.275Z,7.97
2018-05-15T05:26:08.737Z,8.02
2018-05-15T05:28:36.987Z,7.32
2018-05-15T05:31:04.432Z,7.50
2018-05-15T05:33:32.023Z,7.70
2018-05-15T05:35:59.472Z,7.60
2018-05-15T05:38:26.951Z,8.30
2018-05-15T05:40:54.525Z,7.70
2018-05-15T05:43:22.006Z,7.80
2018-05-15T05:45:49.471Z,8.15
2018-05-15T05:48:16.929Z,7.93
2018-05-15T05:50:44.394Z,8.07
2018-05-15T05:53:11.858Z,7.43
2018-05-15T05:55:39.342Z,8.68
2018-05-15T05:58:06.938Z,7.95
2018-05-15T06:00:34.304Z,7.80
2018-05-15T06:03:01.788Z,7.10
2018-05-15T06:05:30.008Z,7.35
2018-05-15T06:07:57.470Z,7.50
2018-05-15T06:10:24.933Z,7.72
2018-05-15T06:12:52.396Z,8.13
2018-05-15T06:15:19.917Z,7.53
2018-05-15T06:17:47.384Z,6.95
2018-05-15T06:20:15.604Z,8.13
2018-05-15T06:22:43.838Z,7.75
2018-05-15T06:25:11.440Z,7.85
2018-05-15T06:27:38.949Z,7.80
2018-05-15T06:30:07.203Z,7.50
2018-05-15T06:32:34.664Z,7.50
2018-05-15T06:35:02.128Z,7.30
2018-05-15T06:37:29.572Z,7.80
2018-05-15T06:39:57.072Z,8.00
2018-05-15T06:42:25.663Z,7.80
2018-05-15T06:44:53.127Z,8.55
2018-05-15T06:47:20.579Z,8.13
2018-05-15T06:49:48.062Z,7.70
2018-05-15T06:52:15.517Z,8.30
2018-05-15T06:54:42.987Z,8.57
2018-05-15T06:57:10.454Z,7.90
2018-05-15T06:59:37.927Z,7.45
2018-05-15T07:02:05.384Z,7.72
2018-05-15T07:04:32.859Z,7.80
2018-05-15T07:07:00.364Z,8.00
2018-05-15T07:09:27.874Z,8.13
2018-05-15T07:11:56.103Z,7.68
2018-05-15T07:14:23.582Z,8.10
2018-05-15T07:16:51.064Z,8.02
2018-05-15T07:19:18.539Z,8.65
2018-05-15T07:21:45.990Z,8.02
2018-05-15T07:24:13.474Z,8.80
2018-05-15T07:26:40.949Z,7.70
2018-05-15T07:29:08.398Z,8.00
2018-05-15T07:31:35.863Z,8.40
2018-05-15T07:34:03.317Z,8.20
2018-05-15T07:36:30.796Z,8.20
2018-05-15T07:38:58.275Z,7.77
2018-05-15T07:41:25.721Z,8.40
2018-05-15T07:43:53.248Z,7.57
2018-05-15T07:46:20.792Z,8.23
2018-05-15T07:48:48.259Z,8.20
2018-05-15T07:51:15.740Z,7.60
2018-05-15T07:53:43.251Z,7.90
2018-05-15T07:56:10.702Z,7.70
2018-05-15T07:58:38.944Z,8.00
2018-05-15T08:01:06.447Z,7.90
2018-05-15T08:03:33.919Z,8.20
2018-05-15T08:06:01.384Z,7.90
2018-05-15T08:08:28.868Z,8.35
2018-05-15T08:10:56.329Z,7.80
2018-05-15T08:13:23.776Z,7.57
2018-05-15T08:15:51.274Z,7.80
2018-05-15T08:18:18.742Z,8.17
2018-05-15T08:20:46.204Z,9.13
2018-05-15T08:23:13.674Z,7.97
2018-05-15T08:25:41.132Z,7.50
2018-05-15T08:28:08.612Z,7.12
2018-05-15T08:30:36.074Z,8.18
2018-05-15T08:33:03.523Z,7.28
2018-05-15T08:35:31.014Z,7.20
2018-05-15T08:37:58.530Z,7.05
2018-05-15T08:40:26.795Z,6.78
2018-05-15T08:42:54.355Z,6.53
2018-05-15T08:45:21.822Z,6.82
2018-05-15T08:47:49.289Z,6.15
2018-05-15T08:50:16.767Z,6.30
2018-05-15T08:52:44.334Z,6.00
2018-05-15T08:55:11.829Z,5.90
2018-05-15T08:57:40.079Z,5.53
2018-05-15T09:00:07.536Z,6.45
2018-05-15T09:02:35.024Z,6.32
2018-05-15T09:05:02.491Z,5.97
2018-05-15T09:07:29.963Z,6.07
2018-05-15T09:09:57.434Z,5.75
2018-05-15T09:12:24.900Z,6.80
2018-05-15T09:14:52.364Z,6.10
2018-05-15T09:17:19.829Z,5.80
2018-05-15T09:19:47.305Z,6.10
2018-05-15T09:22:14.792Z,5.20
2018-05-15T09:24:42.246Z,6.40
2018-05-15T09:27:09.711Z,5.90
2018-05-15T09:29:37.177Z,6.15
2018-05-15T09:32:04.629Z,6.22
2018-05-15T09:34:32.102Z,5.90
2018-05-15T09:36:59.553Z,5.90
2018-05-15T09:39:27.030Z,6.30
2018-05-15T09:41:54.485Z,6.00
2018-05-15T09:44:22.726Z,6.00
2018-05-15T09:46:50.190Z,5.80
2018-05-15T09:49:17.648Z,5.93
2018-05-15T09:51:45.132Z,5.70
2018-05-15T09:54:12.612Z,5.90
2018-05-15T09:56:40.060Z,5.87
2018-05-15T09:59:07.534Z,5.40
2018-05-15T10:01:35.046Z,5.57
2018-05-15T10:04:02.496Z,5.50
2018-05-15T10:06:31.516Z,5.90
2018-05-15T10:08:58.959Z,5.73
2018-05-15T10:11:26.413Z,5.53
2018-05-15T10:13:53.898Z,5.75
2018-05-15T10:16:21.363Z,5.50
2018-05-15T10:18:48.839Z,6.00
2018-05-15T10:21:16.316Z,5.80
2018-05-15T10:23:43.786Z,5.85
2018-05-15T10:26:11.251Z,5.28
2018-05-15T10:28:38.731Z,5.18
2018-05-15T10:31:06.198Z,5.80
2018-05-15T10:33:33.658Z,5.22
2018-05-15T10:36:01.235Z,6.68
2018-05-15T10:38:28.708Z,5.65
2018-05-15T10:40:56.247Z,5.80
2018-05-15T10:43:24.467Z,5.53
2018-05-15T10:45:51.920Z,5.50
2018-05-15T10:48:19.402Z,5.60
2018-05-15T10:50:46.929Z,5.22
2018-05-15T10:53:14.330Z,5.50
2018-05-15T10:55:41.797Z,5.40
2018-05-15T10:58:09.295Z,5.60
2018-05-15T11:00:36.848Z,5.50
2018-05-15T11:03:04.302Z,5.50
2018-05-15T11:05:31.767Z,5.60
2018-05-15T11:07:59.243Z,5.40
2018-05-15T11:10:26.699Z,5.53
2018-05-15T11:12:54.154Z,5.50
2018-05-15T11:15:21.631Z,5.12
2018-05-15T11:17:49.146Z,5.40
2018-05-15T11:20:28.597Z,5.15
2018-05-15T11:23:08.043Z,5.20
2018-05-15T11:25:35.510Z,5.10
2018-05-15T11:28:02.968Z,5.20
2018-05-15T11:30:30.461Z,4.78
2018-05-15T11:32:57.907Z,5.30
2018-05-15T11:35:25.357Z,4.70
2018-05-15T11:37:52.812Z,5.00
2018-05-15T11:40:20.283Z,4.55
2018-05-15T11:42:47.779Z,5.12
2018-05-15T11:45:15.253Z,5.05
2018-05-15T11:47:43.016Z,4.70
2018-05-15T11:50:10.986Z,5.20
2018-05-15T11:52:38.243Z,5.35
2018-05-15T11:55:05.224Z,4.85
2018-05-15T11:57:32.687Z,4.33
2018-05-15T12:00:00.322Z,4.20
2018-05-15T12:02:27.774Z,4.95
2018-05-15T12:04:55.916Z,4.65
2018-05-15T12:07:23.399Z,4.43
2018-05-15T12:09:50.839Z,4.82
2018-05-15T12:12:18.311Z,4.50
2018-05-15T12:14:45.787Z,4.30
2018-05-15T12:17:13.250Z,4.77
2018-05-15T12:19:40.697Z,4.30
2018-05-15T12:22:08.928Z,4.70
2018-05-15T12:24:36.469Z,4.50
2018-05-15T12:27:03.877Z,4.80
2018-05-15T12:29:31.360Z,5.28
2018-05-15T12:31:59.616Z,4.80
2018-05-15T12:34:27.076Z,4.40
2018-05-15T12:36:54.580Z,4.10
2018-05-15T12:39:22.036Z,3.90
2018-05-15T12:41:49.635Z,4.90
2018-05-15T12:44:16.969Z,4.80
2018-05-15T12:46:44.562Z,4.60
2018-05-15T12:49:11.952Z,4.20
2018-05-15T12:51:39.420Z,4.30
2018-05-15T12:54:06.917Z,3.93
2018-05-15T12:56:35.135Z,4.00
2018-05-15T12:59:02.598Z,4.25
2018-05-15T13:01:30.072Z,4.20
2018-05-15T13:03:57.525Z,4.50
2018-05-15T13:06:25.013Z,4.50
2018-05-15T13:08:52.462Z,4.30
2018-05-15T13:11:19.912Z,3.97
2018-05-15T13:13:48.158Z,4.37
2018-05-15T13:16:15.631Z,4.45
2018-05-15T13:18:43.117Z,4.65
2018-05-15T13:21:10.548Z,4.40
2018-05-15T13:23:38.014Z,4.40
2018-05-15T13:26:05.469Z,4.53
2018-05-15T13:28:32.924Z,4.35
2018-05-15T13:31:00.404Z,4.37
2018-05-15T13:33:27.902Z,4.30
2018-05-15T13:35:55.353Z,4.15
2018-05-15T13:38:22.858Z,4.70
2018-05-15T13:40:50.289Z,4.37
2018-05-15T13:43:17.746Z,4.00
2018-05-15T13:45:45.986Z,4.20
2018-05-15T13:48:13.463Z,4.47
2018-05-15T13:50:40.942Z,3.92
2018-05-15T13:53:08.423Z,4.00
2018-05-15T13:55:36.671Z,4.20
2018-05-15T13:58:04.135Z,4.37
2018-05-15T14:00:31.611Z,4.10
2018-05-15T14:02:59.144Z,4.20
2018-05-15T14:05:26.611Z,4.28
2018-05-15T14:07:54.084Z,4.20
2018-05-15T14:10:21.546Z,4.40
2018-05-15T14:12:49.799Z,4.22
2018-05-15T14:15:17.267Z,3.90
2018-05-15T14:17:44.781Z,4.32
2018-05-15T14:20:12.280Z,4.20
2018-05-15T14:22:39.770Z,4.00
2018-05-15T14:25:07.239Z,3.90
2018-05-15T14:27:34.699Z,4.00
2018-05-15T14:30:02.170Z,4.07
2018-05-15T14:32:29.629Z,3.80
2018-05-15T14:34:57.104Z,4.30
2018-05-15T14:37:24.575Z,3.90
2018-05-15T14:39:52.059Z,3.87
2018-05-15T14:42:31.417Z,4.10
2018-05-15T14:44:58.899Z,4.45
2018-05-15T14:47:26.386Z,4.05
2018-05-15T14:49:54.624Z,4.00
2018-05-15T14:52:22.079Z,4.00
2018-05-15T14:54:49.552Z,4.20
2018-05-15T14:57:17.039Z,4.20
2018-05-15T14:59:44.502Z,4.60
2018-05-15T15:02:11.985Z,4.60
2018-05-15T15:04:39.420Z,4.63
2018-05-15T15:07:06.900Z,4.10
2018-05-15T15:09:34.373Z,4.55
2018-05-15T15:12:01.836Z,3.92
2018-05-15T15:14:29.294Z,4.30
2018-05-15T15:16:57.159Z,4.10
2018-05-15T15:19:24.610Z,4.30
2018-05-15T15:21:52.830Z,4.35
2018-05-15T15:24:20.315Z,4.10
2018-05-15T15:26:47.787Z,4.20
2018-05-15T15:29:15.692Z,4.03
2018-05-15T15:31:43.120Z,3.90
2018-05-15T15:34:10.583Z,4.30
2018-05-15T15:36:38.047Z,4.30
2018-05-15T15:39:05.513Z,4.50
2018-05-15T15:41:32.976Z,4.50
2018-05-15T15:44:00.442Z,4.70
2018-05-15T15:46:28.664Z,4.57
2018-05-15T15:48:56.112Z,4.20
2018-05-15T15:51:23.578Z,4.10
2018-05-15T15:53:51.021Z,4.70
2018-05-15T15:56:19.291Z,4.70
2018-05-15T15:58:59.614Z,4.60
2018-05-15T16:01:27.078Z,4.50
2018-05-15T16:03:54.538Z,4.97
2018-05-15T16:06:22.024Z,5.37
2018-05-15T16:08:49.476Z,4.50
2018-05-15T16:11:17.714Z,5.00
2018-05-15T16:13:45.170Z,4.60
2018-05-15T16:16:12.631Z,4.55
2018-05-15T16:18:40.119Z,4.70
2018-05-15T16:21:07.600Z,4.70
2018-05-15T16:23:35.056Z,5.10
2018-05-15T16:26:02.515Z,4.97
2018-05-15T16:28:30.038Z,5.18
2018-05-15T16:30:57.470Z,5.10
2018-05-15T16:33:24.924Z,4.90
2018-05-15T16:35:52.399Z,4.95
2018-05-15T16:38:19.870Z,4.87
2018-05-15T16:40:47.342Z,5.00
2018-05-15T16:43:14.811Z,5.13
2018-05-15T16:45:42.271Z,5.30
2018-05-15T16:48:09.725Z,5.20
2018-05-15T16:50:37.172Z,5.45
2018-05-15T16:53:05.448Z,5.10
2018-05-15T16:55:33.666Z,5.00
2018-05-15T16:58:01.140Z,5.15
2018-05-15T17:00:28.670Z,5.40
2018-05-15T17:02:56.126Z,5.00
2018-05-15T17:05:23.606Z,5.10
2018-05-15T17:07:51.102Z,5.10
2018-05-15T17:10:18.576Z,5.50
2018-05-15T17:12:46.076Z,5.50
2018-05-15T17:15:13.532Z,5.68
2018-05-15T17:17:40.991Z,5.75
2018-05-15T17:20:08.548Z,5.00
2018-05-15T17:22:36.042Z,5.05
2018-05-15T17:25:03.499Z,5.30
2018-05-15T17:27:30.964Z,5.20
2018-05-15T17:29:58.407Z,4.85
2018-05-15T17:32:25.886Z,5.30
2018-05-15T17:34:53.341Z,5.20
2018-05-15T17:37:20.831Z,4.55
2018-05-15T17:39:49.080Z,4.70
2018-05-15T17:42:16.526Z,5.10
2018-05-15T17:44:43.987Z,4.50
2018-05-15T17:47:11.452Z,4.70
2018-05-15T17:49:38.920Z,5.12
2018-05-15T17:52:06.422Z,5.78
2018-05-15T17:54:33.864Z,6.30
2018-05-15T17:57:01.424Z,5.50
2018-05-15T17:59:28.941Z,5.40
2018-05-15T18:01:56.386Z,5.22
2018-05-15T18:04:23.835Z,5.13
2018-05-15T18:06:51.325Z,5.90
2018-05-15T18:09:18.772Z,5.50
2018-05-15T18:11:46.245Z,5.30
2018-05-15T18:14:13.724Z,5.57
2018-05-15T18:16:41.175Z,5.62
2018-05-15T18:19:08.649Z,5.43
2018-05-15T18:21:36.113Z,5.70
2018-05-15T18:24:03.575Z,5.50
2018-05-15T18:26:35.733Z,5.47
2018-05-15T18:29:03.264Z,5.40
2018-05-15T18:31:30.735Z,7.70
2018-05-15T18:33:58.185Z,10.63
2018-05-15T18:36:25.653Z,7.05
2018-05-15T18:38:53.115Z,5.45
2018-05-15T18:41:20.590Z,5.40
2018-05-15T18:43:48.031Z,5.57
2018-05-15T18:46:16.260Z,5.70
2018-05-15T18:48:43.714Z,5.07
2018-05-15T18:51:11.171Z,5.65
2018-05-15T18:53:38.650Z,5.00
2018-05-15T18:56:06.108Z,5.70
2018-05-15T18:58:33.579Z,5.30
2018-05-15T19:01:01.784Z,5.32
2018-05-15T19:03:29.254Z,5.87
2018-05-15T19:05:56.712Z,6.00
2018-05-15T19:08:24.204Z,6.00
2018-05-15T19:10:52.084Z,8.02
2018-05-15T19:13:19.525Z,6.30
2018-05-15T19:15:47.754Z,5.75
2018-05-15T19:18:15.254Z,5.87
2018-05-15T19:20:42.734Z,5.45
2018-05-15T19:23:10.183Z,5.60
2018-05-15T19:25:37.648Z,5.60
2018-05-15T19:28:05.103Z,8.00
2018-05-15T19:30:32.559Z,6.70
2018-05-15T19:33:02.962Z,5.93
2018-05-15T19:35:36.974Z,5.90
2018-05-15T19:38:04.420Z,6.10
2018-05-15T19:40:31.891Z,6.30
2018-05-15T19:42:59.380Z,5.60
2018-05-15T19:45:26.842Z,5.55
2018-05-15T19:47:54.301Z,5.85
2018-05-15T19:50:21.755Z,6.20
2018-05-15T19:52:49.212Z,5.57
2018-05-15T19:55:16.686Z,6.30
2018-05-15T19:57:44.147Z,5.72
2018-05-15T20:00:11.711Z,6.43
2018-05-15T20:02:39.179Z,6.10
2018-05-15T20:05:06.632Z,6.03
2018-05-15T20:07:34.118Z,5.73
2018-05-15T20:10:01.587Z,6.35
2018-05-15T20:12:29.054Z,6.20
2018-05-15T20:14:56.508Z,6.20
2018-05-15T20:17:24.724Z,6.63
2018-05-15T20:19:52.219Z,5.78
2018-05-15T20:22:19.679Z,6.12
2018-05-15T20:24:47.153Z,6.35
2018-05-15T20:27:14.608Z,6.70
2018-05-15T20:29:42.072Z,6.20
2018-05-15T20:32:09.556Z,6.60
2018-05-15T20:34:37.016Z,6.93
2018-05-15T20:37:04.460Z,6.60
2018-05-15T20:39:31.940Z,6.30
2018-05-15T20:41:59.517Z,6.97
2018-05-15T20:44:26.971Z,6.30
2018-05-15T20:46:54.431Z,6.20
2018-05-15T20:49:22.663Z,6.20
2018-05-15T20:51:50.119Z,6.40
2018-05-15T20:54:17.581Z,7.25
2018-05-15T20:56:45.070Z,6.70
2018-05-15T20:59:12.543Z,6.40
2018-05-15T21:01:39.992Z,6.72
2018-05-15T21:04:07.457Z,6.45
2018-05-15T21:06:34.919Z,6.80
2018-05-15T21:09:02.373Z,6.55
2018-05-15T21:11:30.610Z,6.80
2018-05-15T21:13:58.071Z,6.40
2018-05-15T21:16:25.525Z,6.90
2018-05-15T21:18:53.006Z,6.82
2018-05-15T21:21:20.488Z,6.80
2018-05-15T21:23:47.962Z,7.03
2018-05-15T21:26:15.422Z,6.70
2018-05-15T21:28:42.895Z,6.75
2018-05-15T21:31:11.219Z,6.78
2018-05-15T21:33:39.754Z,7.62
2018-05-15T21:36:08.013Z,7.10
2018-05-15T21:38:36.237Z,7.55
2018-05-15T21:41:03.700Z,7.03
2018-05-15T21:43:31.171Z,7.13
2018-05-15T21:45:58.635Z,7.43
2018-05-15T21:48:26.096Z,7.20
2018-05-15T21:50:55.739Z,7.35
2018-05-15T21:53:23.215Z,7.40
2018-05-15T21:55:50.674Z,7.27
2018-05-15T21:58:18.155Z,6.90
2018-05-15T22:00:45.645Z,7.82
2018-05-15T22:03:13.096Z,7.50
2018-05-15T22:05:40.595Z,7.25
2018-05-15T22:08:08.052Z,7.82
2018-05-15T22:10:36.290Z,8.43
2018-05-15T22:13:15.995Z,8.10
2018-05-15T22:15:55.202Z,8.43
2018-05-15T22:18:34.732Z,8.10
2018-05-15T22:21:14.139Z,8.35
2018-05-15T22:23:41.143Z,7.60
2018-05-15T22:26:09.387Z,8.00
2018-05-15T22:28:37.608Z,7.10
2018-05-15T22:31:05.842Z,7.03
2018-05-15T22:33:33.292Z,7.35
2018-05-15T22:36:00.763Z,6.80
2018-05-15T22:38:28.234Z,6.90
2018-05-15T22:40:55.692Z,6.97
2018-05-15T22:43:23.154Z,6.80
2018-05-15T22:45:51.400Z,7.10
2018-05-15T22:48:18.860Z,6.95
2018-05-15T22:50:46.322Z,7.50
2018-05-15T22:53:13.802Z,7.60
2018-05-15T22:55:41.256Z,7.30
2018-05-15T22:58:08.711Z,6.68
2018-05-15T23:00:36.184Z,7.28
2018-05-15T23:03:03.632Z,6.62
2018-05-15T23:05:31.863Z,7.15
2018-05-15T23:07:59.320Z,7.40
2018-05-15T23:10:26.814Z,7.10
2018-05-15T23:12:54.260Z,7.37
2018-05-15T23:15:21.730Z,7.00
2018-05-15T23:17:49.214Z,7.65
2018-05-15T23:20:16.667Z,7.18
2018-05-15T23:22:44.151Z,7.12
2018-05-15T23:25:11.612Z,6.82
2018-05-15T23:27:39.070Z,6.90
2018-05-15T23:30:06.534Z,7.30
2018-05-15T23:32:33.983Z,6.95
2018-05-15T23:35:01.460Z,7.32
2018-05-15T23:37:29.690Z,6.70
2018-05-15T23:39:57.131Z,7.20
2018-05-15T23:42:24.590Z,6.65
2018-05-15T23:44:52.040Z,6.40
2018-05-15T23:47:20.260Z,6.80
2018-05-15T23:49:47.734Z,6.87
2018-05-15T23:52:15.186Z,7.15
2018-05-15T23:54:42.653Z,7.37
2018-05-15T23:57:10.130Z,7.97
2018-05-15T23:59:37.578Z,7.62
